createdAt,value
2023-02-14T00:01:27.958Z,10.40
2023-02-14T00:04:00.544Z,9.67
2023-02-14T00:06:28.889Z,9.80
2023-02-14T00:08:56.663Z,12.23
2023-02-14T00:11:24.512Z,12.70
2023-02-14T00:14:06.190Z,10.50
2023-02-14T00:16:35.330Z,10.37
2023-02-14T00:19:06.303Z,14.03
2023-02-14T00:21:36.906Z,13.30
2023-02-14T00:24:05.439Z,14.47
2023-02-14T00:26:33.282Z,14.53
2023-02-14T00:29:01.085Z,13.70
2023-02-14T00:31:29.031Z,13.00
2023-02-14T00:33:58.312Z,12.07
2023-02-14T00:36:26.081Z,14.40
2023-02-14T00:38:54.012Z,15.00
2023-02-14T00:41:21.883Z,15.07
2023-02-14T00:43:53.671Z,14.63
2023-02-14T00:46:23.967Z,12.97
2023-02-14T00:48:52.317Z,13.53
2023-02-14T00:51:22.170Z,11.83
2023-02-14T00:53:51.899Z,12.23
2023-02-14T00:56:21.394Z,12.00
2023-02-14T00:58:49.593Z,13.10
2023-02-14T01:01:19.012Z,15.27
2023-02-14T01:03:46.943Z,12.83
2023-02-14T01:06:14.752Z,14.53
2023-02-14T01:08:43.871Z,12.47
2023-02-14T01:11:14.097Z,12.60
2023-02-14T01:13:42.885Z,12.67
2023-02-14T01:16:14.669Z,13.50
2023-02-14T01:18:43.024Z,13.93
2023-02-14T01:21:13.008Z,12.17
2023-02-14T01:23:40.907Z,13.87
2023-02-14T01:26:10.412Z,13.10
2023-02-14T01:28:38.558Z,13.67
2023-02-14T01:31:11.655Z,12.57
2023-02-14T01:33:40.176Z,11.63
2023-02-14T01:36:15.415Z,11.20
2023-02-14T01:38:43.186Z,12.83
2023-02-14T01:41:12.914Z,12.23
2023-02-14T01:43:55.781Z,10.93
2023-02-14T01:46:26.009Z,12.30
2023-02-14T01:48:56.717Z,11.87
2023-02-14T01:51:25.790Z,13.23
2023-02-14T01:53:55.491Z,11.10
2023-02-14T01:56:29.764Z,11.07
2023-02-14T01:59:02.288Z,10.47
2023-02-14T02:01:31.371Z,11.33
2023-02-14T02:04:08.092Z,10.57
2023-02-14T02:06:41.285Z,10.03
2023-02-14T02:09:14.198Z,14.60
2023-02-14T02:11:43.999Z,10.87
2023-02-14T02:14:15.622Z,10.37
2023-02-14T02:16:57.855Z,11.07
2023-02-14T02:19:51.516Z,13.17
2023-02-14T02:23:04.201Z,14.17
2023-02-14T02:25:49.637Z,17.57
2023-02-14T02:28:39.587Z,15.13
2023-02-14T02:31:36.429Z,15.13
2023-02-14T02:35:11.234Z,15.60
2023-02-14T02:37:48.562Z,17.20
2023-02-14T02:40:30.530Z,13.27
2023-02-14T02:43:12.169Z,15.60
2023-02-14T02:46:06.132Z,11.90
2023-02-14T02:48:41.570Z,11.67
2023-02-14T02:51:34.862Z,12.77
2023-02-14T02:54:14.399Z,15.03
2023-02-14T02:56:51.085Z,12.47
2023-02-14T02:59:23.509Z,13.80
2023-02-14T03:02:00.786Z,12.67
2023-02-14T03:04:47.056Z,12.27
2023-02-14T03:07:33.749Z,13.87
2023-02-14T03:10:06.107Z,14.17
2023-02-14T03:13:10.240Z,10.27
2023-02-14T03:16:05.573Z,11.20
2023-02-14T03:19:16.004Z,9.67
2023-02-14T03:21:55.294Z,11.13
2023-02-14T03:24:31.964Z,11.57
2023-02-14T03:27:06.762Z,10.40
2023-02-14T03:29:45.010Z,10.80
2023-02-14T03:32:19.380Z,11.03
2023-02-14T03:34:57.662Z,11.60
2023-02-14T03:37:29.795Z,10.73
2023-02-14T03:40:07.496Z,10.67
2023-02-14T03:42:40.017Z,12.03
2023-02-14T03:45:14.316Z,11.07
2023-02-14T03:47:44.792Z,11.87
2023-02-14T03:50:17.874Z,10.37
2023-02-14T03:52:47.622Z,12.83
2023-02-14T03:55:21.062Z,10.07
2023-02-14T03:57:54.516Z,10.53
2023-02-14T04:00:22.457Z,13.60
2023-02-14T04:02:54.788Z,11.80
2023-02-14T04:05:25.306Z,13.07
2023-02-14T04:07:55.521Z,15.20
2023-02-14T04:10:25.761Z,13.17
2023-02-14T04:12:53.952Z,13.03
2023-02-14T04:15:22.127Z,9.87
2023-02-14T04:18:07.328Z,12.40
2023-02-14T04:20:35.179Z,12.00
2023-02-14T04:23:03.605Z,13.37
2023-02-14T04:25:33.692Z,11.30
2023-02-14T04:28:01.479Z,9.83
2023-02-14T04:30:29.300Z,11.20
2023-02-14T04:32:57.144Z,11.07
2023-02-14T04:35:25.013Z,12.77
2023-02-14T04:37:53.803Z,11.93
2023-02-14T04:40:21.651Z,11.03
2023-02-14T04:42:50.780Z,13.73
2023-02-14T04:45:18.641Z,12.97
2023-02-14T04:47:46.712Z,11.07
2023-02-14T04:50:15.523Z,12.73
2023-02-14T04:52:43.418Z,13.57
2023-02-14T04:55:11.582Z,11.30
2023-02-14T04:57:39.352Z,12.63
2023-02-14T05:00:11.059Z,13.57
2023-02-14T05:02:38.966Z,12.47
2023-02-14T05:05:07.765Z,12.37
2023-02-14T05:07:35.934Z,10.57
2023-02-14T05:10:04.151Z,10.37
2023-02-14T05:12:32.019Z,12.57
2023-02-14T05:14:59.940Z,12.53
2023-02-14T05:17:29.178Z,10.10
2023-02-14T05:19:57.074Z,13.00
2023-02-14T05:22:24.909Z,12.20
2023-02-14T05:24:52.782Z,11.83
2023-02-14T05:27:20.684Z,11.40
2023-02-14T05:29:48.531Z,12.77
2023-02-14T05:32:16.721Z,11.60
2023-02-14T05:34:45.935Z,14.43
2023-02-14T05:37:13.787Z,12.63
2023-02-14T05:39:41.518Z,12.33
2023-02-14T05:42:12.293Z,11.60
2023-02-14T05:44:40.042Z,13.70
2023-02-14T05:47:08.017Z,11.90
2023-02-14T05:49:36.687Z,12.43
2023-02-14T05:52:06.302Z,11.97
2023-02-14T05:54:34.152Z,12.80
2023-02-14T05:57:01.906Z,13.83
2023-02-14T05:59:29.735Z,13.00
2023-02-14T06:01:57.587Z,12.47
2023-02-14T06:04:25.511Z,13.40
2023-02-14T06:06:53.396Z,11.17
2023-02-14T06:09:22.587Z,16.97
2023-02-14T06:11:50.453Z,11.63
2023-02-14T06:14:18.366Z,12.43
2023-02-14T06:16:46.426Z,13.57
2023-02-14T06:19:14.312Z,12.27
2023-02-14T06:21:42.213Z,12.03
2023-02-14T06:24:10.660Z,11.97
2023-02-14T06:26:39.896Z,15.20
2023-02-14T06:29:07.698Z,12.80
2023-02-14T06:31:35.737Z,11.83
2023-02-14T06:34:03.638Z,12.43
2023-02-14T06:36:31.594Z,13.80
2023-02-14T06:38:59.439Z,13.90
2023-02-14T06:41:27.298Z,13.70
2023-02-14T06:43:56.438Z,14.00
2023-02-14T06:46:24.554Z,13.33
2023-02-14T06:48:52.465Z,10.87
2023-02-14T06:51:20.349Z,12.10
2023-02-14T06:53:48.182Z,13.90
2023-02-14T06:56:16.010Z,14.97
2023-02-14T06:58:43.907Z,10.97
2023-02-14T07:01:13.179Z,12.43
2023-02-14T07:03:41.041Z,11.80
2023-02-14T07:06:09.001Z,13.67
2023-02-14T07:08:37.018Z,12.53
2023-02-14T07:11:04.967Z,12.97
2023-02-14T07:13:32.844Z,13.07
2023-02-14T07:16:00.702Z,10.40
2023-02-14T07:18:29.973Z,12.23
2023-02-14T07:20:58.186Z,12.57
2023-02-14T07:23:26.396Z,13.07
2023-02-14T07:25:54.303Z,14.40
2023-02-14T07:28:22.358Z,12.27
2023-02-14T07:30:50.348Z,11.43
2023-02-14T07:33:18.241Z,15.47
2023-02-14T07:35:47.501Z,12.67
2023-02-14T07:38:15.395Z,11.27
2023-02-14T07:40:43.310Z,13.10
2023-02-14T07:43:11.252Z,13.77
2023-02-14T07:45:39.074Z,11.57
2023-02-14T07:48:07.498Z,12.27
2023-02-14T07:50:35.366Z,24.93
2023-02-14T07:53:04.632Z,14.90
2023-02-14T07:55:32.580Z,13.73
2023-02-14T07:58:00.533Z,12.77
2023-02-14T08:00:28.578Z,10.80
2023-02-14T08:02:56.816Z,13.77
2023-02-14T08:05:24.865Z,12.43
2023-02-14T08:07:52.780Z,11.83
2023-02-14T08:10:22.011Z,12.97
2023-02-14T08:13:03.593Z,11.13
2023-02-14T08:15:50.618Z,12.63
2023-02-14T08:18:19.664Z,10.20
2023-02-14T08:20:49.870Z,12.00
2023-02-14T08:23:18.148Z,10.73
2023-02-14T08:25:47.702Z,10.37
2023-02-14T08:28:15.708Z,11.60
2023-02-14T08:30:43.895Z,13.43
2023-02-14T08:33:12.208Z,9.97
2023-02-14T08:35:40.142Z,10.43
2023-02-14T08:38:08.253Z,11.37
2023-02-14T08:40:37.395Z,11.93
2023-02-14T08:43:07.714Z,9.03
2023-02-14T08:45:36.262Z,11.67
2023-02-14T08:48:05.929Z,12.17
2023-02-14T08:50:34.504Z,10.17
2023-02-14T08:53:02.766Z,11.67
2023-02-14T08:55:30.629Z,12.97
2023-02-14T08:58:00.452Z,11.47
2023-02-14T09:00:29.812Z,13.27
2023-02-14T09:02:57.816Z,10.10
2023-02-14T09:05:25.914Z,9.87
2023-02-14T09:07:55.935Z,10.67
2023-02-14T09:10:24.876Z,10.00
2023-02-14T09:12:53.355Z,10.40
2023-02-14T09:15:21.339Z,11.77
2023-02-14T09:17:51.147Z,11.20
2023-02-14T09:20:19.280Z,10.27
2023-02-14T09:22:48.756Z,9.80
2023-02-14T09:25:17.351Z,11.37
2023-02-14T09:27:45.404Z,12.37
2023-02-14T09:30:14.254Z,10.73
2023-02-14T09:32:42.142Z,10.70
2023-02-14T09:35:11.452Z,10.80
2023-02-14T09:37:39.396Z,15.57
2023-02-14T09:40:08.209Z,10.57
2023-02-14T09:42:46.575Z,11.27
2023-02-14T09:45:16.861Z,8.10
2023-02-14T09:47:49.900Z,8.33
2023-02-14T09:50:25.712Z,10.73
2023-02-14T09:52:58.106Z,9.40
2023-02-14T09:55:32.215Z,9.73
2023-02-14T09:58:08.166Z,9.57
2023-02-14T10:00:39.572Z,8.52
2023-02-14T10:03:31.855Z,8.37
2023-02-14T10:06:10.280Z,8.77
2023-02-14T10:08:56.949Z,10.55
2023-02-14T10:11:25.754Z,9.07
2023-02-14T10:13:58.901Z,8.57
2023-02-14T10:16:31.531Z,7.95
2023-02-14T10:19:03.379Z,8.48
2023-02-14T10:21:40.390Z,9.82
2023-02-14T10:24:17.168Z,12.23
2023-02-14T10:26:46.579Z,7.35
2023-02-14T10:29:17.332Z,7.82
2023-02-14T10:31:55.720Z,7.05
2023-02-14T10:34:31.842Z,7.82
2023-02-14T10:37:33.637Z,7.00
2023-02-14T10:40:21.774Z,6.28
2023-02-14T10:42:58.862Z,8.45
2023-02-14T10:45:34.549Z,6.88
2023-02-14T10:48:10.228Z,8.20
2023-02-14T10:50:42.498Z,5.95
2023-02-14T10:53:20.666Z,5.30
2023-02-14T10:55:53.832Z,6.32
2023-02-14T10:58:23.616Z,5.63
2023-02-14T11:01:01.034Z,6.07
2023-02-14T11:03:30.534Z,5.03
2023-02-14T11:05:58.420Z,6.32
2023-02-14T11:08:32.616Z,6.28
2023-02-14T11:11:08.749Z,5.72
2023-02-14T11:13:38.692Z,6.45
2023-02-14T11:16:08.917Z,5.75
2023-02-14T11:18:39.974Z,5.05
2023-02-14T11:21:10.892Z,5.57
2023-02-14T11:23:42.464Z,5.32
2023-02-14T11:26:17.526Z,4.90
2023-02-14T11:28:54.363Z,5.68
2023-02-14T11:31:28.116Z,5.28
2023-02-14T11:33:56.166Z,5.05
2023-02-14T11:36:24.768Z,5.25
2023-02-14T11:39:03.116Z,4.50
2023-02-14T11:41:47.854Z,5.18
2023-02-14T11:44:22.552Z,5.32
2023-02-14T11:46:53.448Z,4.68
2023-02-14T11:49:30.951Z,4.75
2023-02-14T11:52:01.332Z,4.25
2023-02-14T11:54:37.689Z,5.00
2023-02-14T11:57:09.706Z,4.32
2023-02-14T11:59:41.838Z,6.13
2023-02-14T12:02:26.175Z,6.68
2023-02-14T12:04:56.996Z,6.25
2023-02-14T12:07:29.742Z,4.35
2023-02-14T12:10:22.971Z,4.80
2023-02-14T12:12:53.630Z,8.40
2023-02-14T12:15:28.313Z,4.35
2023-02-14T12:18:03.910Z,5.00
2023-02-14T12:20:41.925Z,5.80
2023-02-14T12:23:19.123Z,4.00
2023-02-14T12:25:55.546Z,5.03
2023-02-14T12:28:30.805Z,4.07
2023-02-14T12:30:59.267Z,4.30
2023-02-14T12:33:27.489Z,4.25
2023-02-14T12:36:05.472Z,5.25
2023-02-14T12:38:44.734Z,5.03
2023-02-14T12:41:30.942Z,5.03
2023-02-14T12:44:02.767Z,5.18
2023-02-14T12:46:55.932Z,3.20
2023-02-14T12:49:52.467Z,3.45
2023-02-14T12:52:39.767Z,4.47
2023-02-14T12:55:28.582Z,3.45
2023-02-14T12:58:05.209Z,3.13
2023-02-14T13:00:43.657Z,2.55
2023-02-14T13:03:39.496Z,3.88
2023-02-14T13:06:15.712Z,4.78
2023-02-14T13:09:01.549Z,3.75
2023-02-14T13:11:37.985Z,6.43
2023-02-14T13:14:16.594Z,2.80
2023-02-14T13:16:51.203Z,3.47
2023-02-14T13:19:36.246Z,2.78
2023-02-14T13:22:06.893Z,2.90
2023-02-14T13:24:41.256Z,2.78
2023-02-14T13:27:15.083Z,2.95
2023-02-14T13:29:48.195Z,2.65
2023-02-14T13:32:20.221Z,2.85
2023-02-14T13:34:50.108Z,2.90
2023-02-14T13:37:20.579Z,3.42
2023-02-14T13:39:52.504Z,2.85
2023-02-14T13:42:54.845Z,3.17
2023-02-14T13:45:56.086Z,3.55
2023-02-14T13:48:27.502Z,2.80
2023-02-14T13:50:58.310Z,3.08
2023-02-14T13:53:48.876Z,3.15
2023-02-14T13:56:35.688Z,3.15
2023-02-14T13:59:06.993Z,3.45
2023-02-14T14:01:40.489Z,3.63
2023-02-14T14:04:35.256Z,4.30
2023-02-14T14:07:27.065Z,3.08
2023-02-14T14:10:03.562Z,3.75
2023-02-14T14:12:39.712Z,4.13
2023-02-14T14:15:19.415Z,3.28
2023-02-14T14:18:11.899Z,4.45
2023-02-14T14:20:47.850Z,6.10
2023-02-14T14:23:30.975Z,5.45
2023-02-14T14:25:59.711Z,6.88
2023-02-14T14:28:31.231Z,6.25
2023-02-14T14:30:59.677Z,6.40
2023-02-14T14:33:32.551Z,6.47
2023-02-14T14:36:02.872Z,6.32
2023-02-14T14:38:31.973Z,6.40
2023-02-14T14:41:01.180Z,6.43
2023-02-14T14:43:32.526Z,7.00
2023-02-14T14:46:02.983Z,5.90
2023-02-14T14:48:38.473Z,6.68
2023-02-14T14:51:08.594Z,5.63
2023-02-14T14:53:44.418Z,7.70
2023-02-14T14:56:14.552Z,5.38
2023-02-14T14:58:43.229Z,9.30
2023-02-14T15:01:21.361Z,7.30
2023-02-14T15:03:50.726Z,7.72
2023-02-14T15:06:22.289Z,6.90
2023-02-14T15:08:51.477Z,7.30
2023-02-14T15:11:37.442Z,6.57
2023-02-14T15:14:09.013Z,6.05
2023-02-14T15:16:42.751Z,5.65
2023-02-14T15:19:19.316Z,7.55
2023-02-14T15:21:47.436Z,6.70
2023-02-14T15:24:18.416Z,6.57
2023-02-14T15:26:48.034Z,6.75
2023-02-14T15:29:23.131Z,7.05
2023-02-14T15:31:51.715Z,8.40
2023-02-14T15:34:24.792Z,7.60
2023-02-14T15:36:57.494Z,8.10
2023-02-14T15:39:30.812Z,7.85
2023-02-14T15:41:58.638Z,7.03
2023-02-14T15:44:27.638Z,6.95
2023-02-14T15:46:58.098Z,7.53
2023-02-14T15:49:33.788Z,9.00
2023-02-14T15:52:04.621Z,8.38
2023-02-14T15:54:38.132Z,9.63
2023-02-14T15:57:08.850Z,6.78
2023-02-14T15:59:41.045Z,7.80
2023-02-14T16:02:25.262Z,7.82
2023-02-14T16:04:54.633Z,8.80
2023-02-14T16:07:27.255Z,9.13
2023-02-14T16:10:22.077Z,7.97
2023-02-14T16:12:58.996Z,9.23
2023-02-14T16:15:28.630Z,7.13
2023-02-14T16:17:56.723Z,8.20
2023-02-14T16:20:39.763Z,7.22
2023-02-14T16:23:25.276Z,9.07
2023-02-14T16:25:54.060Z,8.48
2023-02-14T16:28:22.927Z,9.27
2023-02-14T16:30:55.938Z,8.00
2023-02-14T16:33:26.309Z,10.63
2023-02-14T16:35:55.850Z,7.80
2023-02-14T16:38:23.840Z,8.70
2023-02-14T16:40:54.278Z,9.43
2023-02-14T16:43:22.195Z,10.60
2023-02-14T16:45:50.340Z,8.43
2023-02-14T16:48:18.161Z,9.40
2023-02-14T16:50:47.477Z,8.75
2023-02-14T16:53:24.993Z,10.00
2023-02-14T16:55:54.602Z,19.38
2023-02-14T16:58:24.460Z,11.20
2023-02-14T17:00:52.411Z,9.73
2023-02-14T17:03:20.608Z,11.52
2023-02-14T17:05:48.493Z,10.75
2023-02-14T17:08:18.151Z,11.93
2023-02-14T17:10:48.475Z,11.63
2023-02-14T17:13:19.929Z,7.88
2023-02-14T17:15:48.334Z,16.70
2023-02-14T17:18:18.257Z,13.18
2023-02-14T17:20:46.107Z,15.00
2023-02-14T17:23:13.883Z,12.32
2023-02-14T17:25:43.169Z,15.13
2023-02-14T17:28:11.029Z,11.25
2023-02-14T17:30:38.874Z,17.52
2023-02-14T17:33:06.610Z,14.93
2023-02-14T17:35:35.033Z,14.85
2023-02-14T17:38:03.243Z,14.98
2023-02-14T17:40:32.223Z,13.40
2023-02-14T17:43:01.525Z,14.73
2023-02-14T17:45:29.584Z,13.20
2023-02-14T17:47:57.374Z,13.10
2023-02-14T17:50:25.255Z,13.10
2023-02-14T17:52:55.062Z,13.27
2023-02-14T17:55:23.420Z,11.47
2023-02-14T17:57:52.558Z,15.03
2023-02-14T18:00:25.004Z,10.80
2023-02-14T18:02:52.926Z,11.53
2023-02-14T18:05:20.767Z,12.30
2023-02-14T18:07:48.588Z,10.97
2023-02-14T18:10:16.366Z,10.73
2023-02-14T18:12:44.226Z,11.10
2023-02-14T18:15:12.017Z,13.67
2023-02-14T18:17:41.170Z,12.30
2023-02-14T18:20:09.854Z,11.43
2023-02-14T18:22:37.748Z,12.27
2023-02-14T18:25:06.137Z,12.87
2023-02-14T18:27:33.855Z,14.17
2023-02-14T18:30:01.763Z,13.57
2023-02-14T18:32:29.571Z,14.60
2023-02-14T18:34:58.635Z,16.13
2023-02-14T18:37:26.361Z,17.93
2023-02-14T18:39:54.194Z,22.03
2023-02-14T18:42:21.958Z,22.30
2023-02-14T18:44:49.694Z,20.47
2023-02-14T18:47:17.549Z,23.37
2023-02-14T18:49:45.269Z,22.87
2023-02-14T18:52:14.465Z,34.77
2023-02-14T18:54:42.568Z,35.73
2023-02-14T18:57:10.336Z,42.43
2023-02-14T18:59:39.196Z,60.60
2023-02-14T19:02:07.311Z,51.80
2023-02-14T19:04:35.291Z,48.73
2023-02-14T19:07:04.453Z,56.27
2023-02-14T19:09:38.979Z,46.70
2023-02-14T19:12:07.448Z,51.73
2023-02-14T19:14:35.288Z,32.53
2023-02-14T19:17:04.345Z,51.37
2023-02-14T19:19:32.591Z,43.60
2023-02-14T19:22:00.950Z,50.60
2023-02-14T19:24:29.064Z,41.60
2023-02-14T19:26:58.428Z,46.87
2023-02-14T19:29:26.195Z,32.20
2023-02-14T19:31:55.716Z,37.60
2023-02-14T19:34:27.872Z,35.57
2023-02-14T19:36:59.036Z,42.07
2023-02-14T19:39:29.412Z,43.47
2023-02-14T19:41:59.699Z,44.40
2023-02-14T19:44:29.265Z,39.37
2023-02-14T19:46:59.908Z,39.07
2023-02-14T19:49:29.790Z,41.23
2023-02-14T19:51:58.846Z,33.27
2023-02-14T19:54:27.059Z,34.33
2023-02-14T19:56:56.269Z,38.53
2023-02-14T19:59:25.594Z,33.33
2023-02-14T20:01:54.773Z,35.47
2023-02-14T20:04:25.159Z,40.67
2023-02-14T20:06:53.538Z,33.87
2023-02-14T20:09:22.790Z,36.77
2023-02-14T20:11:54.200Z,31.30
2023-02-14T20:14:23.937Z,35.00
2023-02-14T20:16:54.549Z,21.93
2023-02-14T20:19:26.897Z,29.10
2023-02-14T20:21:55.365Z,30.97
2023-02-14T20:24:25.095Z,29.40
2023-02-14T20:26:53.907Z,30.40
2023-02-14T20:29:23.363Z,32.50
2023-02-14T20:31:54.393Z,31.10
2023-02-14T20:34:22.584Z,33.80
2023-02-14T20:36:53.106Z,29.87
2023-02-14T20:39:22.583Z,31.47
2023-02-14T20:41:50.664Z,31.80
2023-02-14T20:44:21.541Z,28.00
2023-02-14T20:46:51.433Z,26.37
2023-02-14T20:49:21.340Z,25.47
2023-02-14T20:51:50.629Z,25.90
2023-02-14T20:54:19.097Z,24.63
2023-02-14T20:56:47.255Z,21.87
2023-02-14T20:59:15.672Z,25.93
2023-02-14T21:01:43.545Z,24.27
2023-02-14T21:04:11.438Z,22.17
2023-02-14T21:06:40.559Z,23.77
2023-02-14T21:09:08.600Z,19.00
2023-02-14T21:11:36.685Z,18.13
2023-02-14T21:14:04.547Z,23.80
2023-02-14T21:16:32.406Z,21.23
2023-02-14T21:19:00.977Z,21.90
2023-02-14T21:21:32.655Z,22.40
2023-02-14T21:24:04.072Z,16.40
2023-02-14T21:26:32.168Z,15.80
2023-02-14T21:28:59.961Z,15.43
2023-02-14T21:31:27.816Z,16.97
2023-02-14T21:33:57.147Z,17.90
2023-02-14T21:36:26.611Z,18.67
2023-02-14T21:38:56.852Z,19.43
2023-02-14T21:41:27.801Z,15.87
2023-02-14T21:43:57.192Z,19.17
2023-02-14T21:46:27.585Z,16.20
2023-02-14T21:49:13.586Z,15.63
2023-02-14T21:51:41.500Z,19.77
2023-02-14T21:54:09.611Z,20.00
2023-02-14T21:56:41.500Z,17.67
2023-02-14T21:59:10.491Z,17.50
2023-02-14T22:01:41.041Z,17.00
2023-02-14T22:04:10.437Z,17.37
2023-02-14T22:06:40.950Z,20.47
2023-02-14T22:09:09.498Z,19.13
2023-02-14T22:11:39.840Z,18.90
2023-02-14T22:14:07.586Z,19.53
2023-02-14T22:16:36.756Z,18.63
2023-02-14T22:19:05.154Z,18.47
2023-02-14T22:21:33.423Z,19.20
2023-02-14T22:24:01.931Z,19.50
2023-02-14T22:26:31.372Z,20.17
2023-02-14T22:29:02.095Z,17.40
2023-02-14T22:31:33.921Z,21.93
2023-02-14T22:34:01.926Z,16.83
2023-02-14T22:36:29.715Z,19.10
2023-02-14T22:38:57.491Z,19.23
2023-02-14T22:41:26.515Z,17.37
2023-02-14T22:43:55.500Z,18.47
2023-02-14T22:46:26.727Z,18.30
2023-02-14T22:48:55.576Z,17.90
2023-02-14T22:51:25.019Z,17.43
2023-02-14T22:53:55.072Z,18.33
2023-02-14T22:56:25.128Z,17.60
2023-02-14T22:58:55.102Z,18.37
2023-02-14T23:01:25.086Z,17.17
2023-02-14T23:03:54.903Z,16.30
2023-02-14T23:06:23.138Z,20.80
2023-02-14T23:08:51.230Z,16.60
2023-02-14T23:11:21.032Z,17.70
2023-02-14T23:14:06.409Z,17.10
2023-02-14T23:17:07.529Z,16.20
2023-02-14T23:19:54.618Z,16.37
2023-02-14T23:22:24.695Z,17.03
2023-02-14T23:24:54.336Z,18.90
2023-02-14T23:27:23.756Z,22.60
2023-02-14T23:29:51.579Z,18.87
2023-02-14T23:32:20.739Z,18.37
2023-02-14T23:34:48.614Z,20.87
2023-02-14T23:37:16.625Z,19.60
2023-02-14T23:39:44.400Z,19.00
2023-02-14T23:42:13.666Z,20.43
2023-02-14T23:44:41.605Z,18.17
2023-02-14T23:47:10.217Z,18.40
2023-02-14T23:49:40.970Z,20.33
2023-02-14T23:52:10.681Z,18.43
2023-02-14T23:54:39.839Z,17.93
2023-02-14T23:57:08.752Z,18.83
2023-02-14T23:59:36.788Z,19.13
